Windsor Hills, California
Current Conditions -  °F | °C
As of 9:53 PM on Friday 19 Dec 2014 (Local Time) from KLAX Reporting Station
Broken Clouds Broken Clouds  
Wind Chill: 58°   Ceiling: 12000
Heat Index: 58°   Visibility: 10mi
Dew Point: 49°   Wind: 5mph
Humidity: 72%   Direction: 320°NW
Pressure: 30.19"   Gusts: NA
Location:  33.9931°N, 118.373°W
Report Text: KLAX 200553Z 32004KT 10SM FEW025 BKN120 BKN200 14/09 A3019 RMK AO2 SLP222 T01440094 10156 20144 53003
Loading
Personal Weather Stations






























Interactive Weather Map New forecast layout! Learn more

10-Day Weather Forecast

Advertisements
Track Severe Weather on mobile